Map

Track Data

SID SEASON NUMBER BASIN SUBBASIN NAME ISO_TIME NATURE LAT LON WMO_WIND WMO_PRES WMO_AGENCY TRACK_TYPE DIST2LAND LANDFALL IFLAG USA_AGENCY USA_ATCF_ID USA_LAT USA_LON USA_RECORD USA_STATUS USA_WIND USA_PRES USA_SSHS USA_R34_NE USA_R34_SE USA_R34_SW USA_R34_NW USA_R50_NE USA_R50_SE USA_R50_SW USA_R50_NW USA_R64_NE USA_R64_SE USA_R64_SW USA_R64_NW USA_POCI USA_ROCI USA_RMW USA_EYE TOKYO_LAT TOKYO_LON TOKYO_GRADE TOKYO_WIND TOKYO_PRES TOKYO_R50_DIR TOKYO_R50_LONG TOKYO_R50_SHORT TOKYO_R30_DIR TOKYO_R30_LONG TOKYO_R30_SHORT TOKYO_LAND CMA_LAT CMA_LON CMA_CAT CMA_WIND CMA_PRES HKO_LAT HKO_LON HKO_CAT HKO_WIND HKO_PRES NEWDELHI_LAT NEWDELHI_LON NEWDELHI_GRADE NEWDELHI_WIND NEWDELHI_PRES NEWDELHI_CI NEWDELHI_DP NEWDELHI_POCI REUNION_LAT REUNION_LON REUNION_TYPE REUNION_WIND REUNION_PRES REUNION_TNUM REUNION_CI REUNION_RMW REUNION_R34_NE REUNION_R34_SE REUNION_R34_SW REUNION_R34_NW REUNION_R50_NE REUNION_R50_SE REUNION_R50_SW REUNION_R50_NW REUNION_R64_NE REUNION_R64_SE REUNION_R64_SW REUNION_R64_NW BOM_LAT BOM_LON BOM_TYPE BOM_WIND BOM_PRES BOM_TNUM BOM_CI BOM_RMW BOM_R34_NE BOM_R34_SE BOM_R34_SW BOM_R34_NW BOM_R50_NE BOM_R50_SE BOM_R50_SW BOM_R50_NW BOM_R64_NE BOM_R64_SE BOM_R64_SW BOM_R64_NW BOM_ROCI BOM_POCI BOM_EYE BOM_POS_METHOD BOM_PRES_METHOD NADI_LAT NADI_LON NADI_CAT NADI_WIND NADI_PRES WELLINGTON_LAT WELLINGTON_LON WELLINGTON_WIND WELLINGTON_PRES DS824_LAT DS824_LON DS824_STAGE DS824_WIND DS824_PRES TD9636_LAT TD9636_LON TD9636_STAGE TD9636_WIND TD9636_PRES TD9635_LAT TD9635_LON TD9635_WIND TD9635_PRES TD9635_ROCI NEUMANN_LAT NEUMANN_LON NEUMANN_CLASS NEUMANN_WIND NEUMANN_PRES MLC_LAT MLC_LON MLC_CLASS MLC_WIND MLC_PRES USA_GUST BOM_GUST BOM_GUST_PER REUNION_GUST REUNION_GUST_PER USA_SEAHGT USA_SEARAD_NE USA_SEARAD_SE USA_SEARAD_SW USA_SEARAD_NW STORM_SPEED STORM_DIR
1997288N20291 1997 97 NA NA GRACE 1997-10-14 12:00:00 TS 20.0000 -68.7000 30 1002 hurdat_atl main 100 88 O_____________ hurdat_atl AL091997 20.0000 -68.7000 TD 30 1002 -1 13 286
1997288N20291 1997 97 NA NA GRACE 1997-10-14 15:00:00 TS 20.1809 -69.3670 main 91 79 P_____________ AL091997 20.1809 -69.3670 TD 30 1001 -1 11 286
1997288N20291 1997 97 NA NA GRACE 1997-10-14 18:00:00 ET 20.3000 -69.8000 30 1001 hurdat_atl main 81 78 O_____________ hurdat_atl AL091997 20.3000 -69.8000 EX 30 1001 -4 5 288
1997288N20291 1997 97 NA NA GRACE 1997-10-14 21:00:00 ET 20.3221 -69.8352 main 81 81 P_____________ AL091997 20.3221 -69.8352 EX 32 1000 -4 2 90
1997288N20291 1997 97 NA NA GRACE 1997-10-15 00:00:00 TS 20.3000 -69.6000 35 999 hurdat_atl main 88 88 O_____________ hurdat_atl AL091997 20.3000 -69.6000 TS 35 999 0 5 95
1997288N20291 1997 97 NA NA GRACE 1997-10-15 03:00:00 TS 20.2775 -69.3023 main 107 107 P_____________ AL091997 20.2775 -69.3023 TS 35 999 0 7 90
1997288N20291 1997 97 NA NA GRACE 1997-10-15 06:00:00 ET 20.3000 -68.9000 35 999 hurdat_atl main 119 119 O_____________ hurdat_atl AL091997 20.3000 -68.9000 EX 35 999 -4 8 78
1997288N20291 1997 97 NA NA GRACE 1997-10-15 09:00:00 ET 20.4346 -68.5101 main 148 148 P_____________ AL091997 20.4346 -68.5101 EX 37 999 -4 9 70
1997288N20291 1997 97 NA NA GRACE 1997-10-15 12:00:00 ET 20.6000 -68.0000 40 999 hurdat_atl main 199 199 O_____________ hurdat_atl AL091997 20.6000 -68.0000 EX 40 999 -4 11 77
1997288N20291 1997 97 NA NA GRACE 1997-10-15 15:00:00 ET 20.6920 -67.3395 main 252 252 P_____________ AL091997 20.6920 -67.3395 EX 40 999 -4 14 82
1997288N20291 1997 97 NA NA GRACE 1997-10-15 18:00:00 ET 20.8000 -66.5000 40 999 hurdat_atl main 268 268 O_____________ hurdat_atl AL091997 20.8000 -66.5000 EX 40 999 -4 17 80
1997288N20291 1997 97 NA NA GRACE 1997-10-15 21:00:00 ET 20.9840 -65.5473 main 291 291 P_____________ AL091997 20.9840 -65.5473 EX 40 999 -4 20 78
1997288N20291 1997 97 NA NA GRACE 1997-10-16 00:00:00 TS 21.2000 -64.4000 40 999 hurdat_atl main 337 337 O_____________ hurdat_atl AL091997 21.2000 -64.4000 TS 40 999 0 24 81
1997288N20291 1997 97 NA NA GRACE 1997-10-16 03:00:00 TS 21.3700 -63.0513 main 425 425 P_____________ AL091997 21.3700 -63.0513 TS 37 999 0 26 81
1997288N20291 1997 97 NA NA GRACE 1997-10-16 06:00:00 TS 21.6000 -61.6000 35 1000 hurdat_atl main 550 550 O_____________ hurdat_atl AL091997 21.6000 -61.6000 TS 35 1000 0 27 78
1997288N20291 1997 97 NA NA GRACE 1997-10-16 09:00:00 TS 21.9392 -60.1843 main 686 686 P_____________ AL091997 21.9392 -60.1843 TS 35 1000 0 27 73
1997288N20291 1997 97 NA NA GRACE 1997-10-16 12:00:00 TS 22.4000 -58.8000 35 1000 hurdat_atl main 837 837 O_____________ hurdat_atl AL091997 22.4000 -58.8000 TS 35 1000 0 27 66
1997288N20291 1997 97 NA NA GRACE 1997-10-16 15:00:00 TS 23.0286 -57.4864 main 986 986 P_____________ AL091997 23.0286 -57.4864 TS 35 1000 0 27 63
1997288N20291 1997 97 NA NA GRACE 1997-10-16 18:00:00 TS 23.6000 -56.2000 35 1001 hurdat_atl main 1135 1135 O_____________ hurdat_atl AL091997 23.6000 -56.2000 TS 35 1001 0 25 70
1997288N20291 1997 97 NA NA GRACE 1997-10-16 21:00:00 TS 23.8654 -54.9354 main 1267 1267 P_____________ AL091997 23.8654 -54.9354 TS 35 1001 0 24 80
1997288N20291 1997 97 NA NA GRACE 1997-10-17 00:00:00 TS 24.0000 -53.6000 35 1002 hurdat_atl main 1391 1391 O_____________ hurdat_atl AL091997 24.0000 -53.6000 TS 35 1002 0 26 83
1997288N20291 1997 97 NA NA GRACE 1997-10-17 03:00:00 TS 24.1643 -52.0947 main 1540 1540 P_____________ AL091997 24.1643 -52.0947 TS 35 1002 0 28 84
1997288N20291 1997 97 NA NA GRACE 1997-10-17 06:00:00 TS 24.3000 -50.5000 35 1003 hurdat_atl main 1695 1695 O_____________ hurdat_atl AL091997 24.3000 -50.5000 TS 35 1003 0 29 85
1997288N20291 1997 97 NA NA GRACE 1997-10-17 09:00:00 TS 24.4104 -48.8981 main 1852 1852 P_____________ AL091997 24.4104 -48.8981 TS 32 1003 -1 29 86
1997288N20291 1997 97 NA NA GRACE 1997-10-17 12:00:00 TS 24.5000 -47.3000 30 1004 hurdat_atl main 2010 O_____________ hurdat_atl AL091997 24.5000 -47.3000 TD 30 1004 -1 29 86

About IBTrACS Database

This database is a web-friendly format of International Best Track Archive for Climate Stewardship (IBTrACS), a global best track data archive curated by NOAA dating back to 1842.

Updated: 2021-10-08